createdAt,value
2018-12-24T00:00:04.216Z,1006.93
2018-12-24T00:01:04.206Z,1006.97
2018-12-24T00:02:04.307Z,1007.04
2018-12-24T00:03:04.189Z,1007.01
2018-12-24T00:04:04.169Z,1006.98
2018-12-24T00:05:04.164Z,1007.06
2018-12-24T00:06:04.150Z,1006.98
2018-12-24T00:07:04.154Z,1006.97
2018-12-24T00:08:04.128Z,1006.99
2018-12-24T00:09:04.119Z,1007.02
2018-12-24T00:10:04.112Z,1007.02
2018-12-24T00:11:04.095Z,1007.04
2018-12-24T00:12:07.179Z,1007.07
2018-12-24T00:13:04.078Z,1007.08
2018-12-24T00:14:04.087Z,1007.10
2018-12-24T00:15:04.055Z,1007.09
2018-12-24T00:16:04.043Z,1007.19
2018-12-24T00:17:04.046Z,1007.12
2018-12-24T00:18:04.021Z,1007.15
2018-12-24T00:19:04.011Z,1007.13
2018-12-24T00:20:04.003Z,1007.17
2018-12-24T00:21:03.987Z,1007.16
2018-12-24T00:22:03.988Z,1007.09
2018-12-24T00:23:03.969Z,1007.12
2018-12-24T00:24:03.959Z,1007.12
2018-12-24T00:25:03.946Z,1007.17
2018-12-24T00:26:03.937Z,1007.22
2018-12-24T00:27:03.941Z,1007.21
2018-12-24T00:28:03.913Z,1007.21
2018-12-24T00:29:03.907Z,1007.19
2018-12-24T00:30:03.893Z,1007.28
2018-12-24T00:31:03.879Z,1007.26
2018-12-24T00:32:03.882Z,1007.31
2018-12-24T00:33:03.859Z,1007.33
2018-12-24T00:34:03.846Z,1007.32
2018-12-24T00:35:03.837Z,1007.40
2018-12-24T00:36:03.833Z,1007.41
2018-12-24T00:37:03.828Z,1007.46
2018-12-24T00:38:03.802Z,1007.49
2018-12-24T00:39:03.795Z,1007.50
2018-12-24T00:40:03.786Z,1007.55
2018-12-24T00:41:03.772Z,1007.56
2018-12-24T00:42:03.780Z,1007.54
2018-12-24T00:43:03.750Z,1007.56
2018-12-24T00:44:03.739Z,1007.56
2018-12-24T00:45:03.728Z,1007.59
2018-12-24T00:46:03.715Z,1007.60
2018-12-24T00:47:03.718Z,1007.68
2018-12-24T00:48:03.700Z,1007.64
2018-12-24T00:49:03.683Z,1007.66
2018-12-24T00:50:03.672Z,1007.68
2018-12-24T00:51:03.663Z,1007.71
2018-12-24T00:52:03.666Z,1007.70
2018-12-24T00:53:03.648Z,1007.83
2018-12-24T00:54:03.629Z,1007.78
2018-12-24T00:55:03.623Z,1007.75
2018-12-24T00:56:03.609Z,1007.78
2018-12-24T00:57:03.617Z,1007.75
2018-12-24T00:58:03.589Z,1007.79
2018-12-24T00:59:03.578Z,1007.80
2018-12-24T01:00:03.565Z,1007.77
2018-12-24T01:01:03.558Z,1007.80
2018-12-24T01:02:03.553Z,1007.81
2018-12-24T01:03:03.534Z,1007.81
2018-12-24T01:04:03.523Z,1007.81
2018-12-24T01:05:03.516Z,1007.88
2018-12-24T01:06:03.503Z,1007.89
2018-12-24T01:07:03.506Z,1007.88
2018-12-24T01:08:03.483Z,1007.92
2018-12-24T01:09:03.472Z,1007.91
2018-12-24T01:10:03.460Z,1007.93
2018-12-24T01:11:03.453Z,1007.95
2018-12-24T01:12:03.448Z,1008.02
2018-12-24T01:13:03.427Z,1008.01
2018-12-24T01:14:03.420Z,1008.03
2018-12-24T01:15:03.405Z,1008.06
2018-12-24T01:16:03.399Z,1008.10
2018-12-24T01:17:03.400Z,1008.18
2018-12-24T01:18:03.373Z,1008.17
2018-12-24T01:19:03.365Z,1008.15
2018-12-24T01:20:03.355Z,1008.16
2018-12-24T01:21:03.340Z,1008.24
2018-12-24T01:22:03.362Z,1008.16
2018-12-24T01:23:03.318Z,1008.14
2018-12-24T01:24:03.308Z,1008.18
2018-12-24T01:25:03.295Z,1008.22
2018-12-24T01:26:03.284Z,1008.17
2018-12-24T01:27:03.276Z,1008.29
2018-12-24T01:28:03.279Z,1008.26
2018-12-24T01:29:03.253Z,1008.22
2018-12-24T01:30:03.243Z,1008.25
2018-12-24T01:31:03.233Z,1008.22
2018-12-24T01:32:03.222Z,1008.26
2018-12-24T01:33:03.226Z,1008.29
2018-12-24T01:34:03.200Z,1008.31
2018-12-24T01:35:03.188Z,1008.32
2018-12-24T01:36:03.181Z,1008.35
2018-12-24T01:37:03.168Z,1008.36
2018-12-24T01:38:03.169Z,1008.34
2018-12-24T01:39:03.148Z,1008.34
2018-12-24T01:40:03.134Z,1008.38
2018-12-24T01:41:03.124Z,1008.37
2018-12-24T01:42:03.113Z,1008.44
2018-12-24T01:43:03.117Z,1008.41
2018-12-24T01:44:03.097Z,1008.48
2018-12-24T01:45:03.086Z,1008.46
2018-12-24T01:46:03.070Z,1008.42
2018-12-24T01:47:03.066Z,1008.47
2018-12-24T01:48:03.062Z,1008.49
2018-12-24T01:49:03.041Z,1008.47
2018-12-24T01:50:03.031Z,1008.48
2018-12-24T01:51:03.017Z,1008.41
2018-12-24T01:52:03.010Z,1008.43
2018-12-24T01:53:03.007Z,1008.44
2018-12-24T01:54:02.991Z,1008.43
2018-12-24T01:55:02.982Z,1008.41
2018-12-24T01:56:02.997Z,1008.40
2018-12-24T01:57:02.954Z,1008.40
2018-12-24T01:58:02.958Z,1008.41
2018-12-24T01:59:02.935Z,1008.40
2018-12-24T02:00:02.922Z,1008.41
2018-12-24T02:01:02.910Z,1008.36
2018-12-24T02:02:02.906Z,1008.48
2018-12-24T02:03:02.903Z,1008.45
2018-12-24T02:04:02.880Z,1008.56
2018-12-24T02:05:02.890Z,1008.58
2018-12-24T02:06:02.860Z,1008.51
2018-12-24T02:07:02.852Z,1008.56
2018-12-24T02:08:02.855Z,1008.49
2018-12-24T02:09:02.828Z,1008.50
2018-12-24T02:10:02.816Z,1008.52
2018-12-24T02:11:02.819Z,1008.52
2018-12-24T02:12:02.795Z,1008.52
2018-12-24T02:13:02.795Z,1008.52
2018-12-24T02:14:02.776Z,1008.56
2018-12-24T02:15:02.762Z,1008.59
2018-12-24T02:16:02.764Z,1008.57
2018-12-24T02:17:02.747Z,1008.61
2018-12-24T02:18:02.747Z,1008.66
2018-12-24T02:19:02.722Z,1008.72
2018-12-24T02:20:02.711Z,1008.74
2018-12-24T02:21:02.698Z,1008.74
2018-12-24T02:22:02.692Z,1008.75
2018-12-24T02:23:02.690Z,1008.79
2018-12-24T02:24:02.665Z,1008.82
2018-12-24T02:25:02.664Z,1008.87
2018-12-24T02:26:02.646Z,1008.90
2018-12-24T02:27:02.636Z,1008.91
2018-12-24T02:28:02.634Z,1008.95
2018-12-24T02:29:02.612Z,1008.97
2018-12-24T02:30:02.609Z,1009.00
2018-12-24T02:31:02.596Z,1008.99
2018-12-24T02:32:02.580Z,1009.03
2018-12-24T02:33:02.579Z,1009.05
2018-12-24T02:34:02.578Z,1009.06
2018-12-24T02:35:02.553Z,1009.06
2018-12-24T02:36:02.540Z,1009.04
2018-12-24T02:37:02.528Z,1009.14
2018-12-24T02:38:02.526Z,1009.13
2018-12-24T02:39:02.508Z,1009.18
2018-12-24T02:40:02.496Z,1009.18
2018-12-24T02:41:02.484Z,1009.19
2018-12-24T02:42:02.472Z,1009.19
2018-12-24T02:43:02.485Z,1009.19
2018-12-24T02:44:02.451Z,1009.21
2018-12-24T02:45:02.444Z,1009.23
2018-12-24T02:46:02.445Z,1009.23
2018-12-24T02:47:02.424Z,1009.28
2018-12-24T02:48:02.422Z,1009.39
2018-12-24T02:49:02.396Z,1009.32
2018-12-24T02:50:02.390Z,1009.31
2018-12-24T02:51:02.381Z,1009.37
2018-12-24T02:52:02.487Z,1009.40
2018-12-24T02:53:02.367Z,1009.44
2018-12-24T02:54:02.347Z,1009.36
2018-12-24T02:55:02.334Z,1009.49
2018-12-24T02:56:02.332Z,1009.52
2018-12-24T02:57:02.314Z,1009.51
2018-12-24T02:58:02.331Z,1009.47
2018-12-24T02:59:02.290Z,1009.57
2018-12-24T03:00:02.280Z,1009.55
2018-12-24T03:01:02.267Z,1009.60
2018-12-24T03:02:02.260Z,1009.69
2018-12-24T03:03:02.273Z,1009.67
2018-12-24T03:04:02.252Z,1009.66
2018-12-24T03:05:02.236Z,1009.74
2018-12-24T03:06:02.215Z,1009.70
2018-12-24T03:07:02.204Z,1009.72
2018-12-24T03:08:02.196Z,1009.75
2018-12-24T03:09:02.195Z,1009.72
2018-12-24T03:10:02.176Z,1009.80
2018-12-24T03:11:02.164Z,1009.78
2018-12-24T03:12:02.151Z,1009.79
2018-12-24T03:13:03.079Z,1009.75
2018-12-24T03:14:02.144Z,1009.78
2018-12-24T03:15:02.127Z,1009.81
2018-12-24T03:16:02.109Z,1009.83
2018-12-24T03:17:02.097Z,1009.87
2018-12-24T03:18:02.102Z,1009.82
2018-12-24T03:19:02.104Z,1009.88
2018-12-24T03:20:02.069Z,1009.86
2018-12-24T03:21:02.068Z,1009.97
2018-12-24T03:22:02.074Z,1010.01
2018-12-24T03:23:02.069Z,1010.01
2018-12-24T03:24:02.076Z,1010.02
2018-12-24T03:25:02.018Z,1010.00
2018-12-24T03:26:02.003Z,1009.99
2018-12-24T03:27:02.070Z,1010.02
2018-12-24T03:28:01.979Z,1010.05
2018-12-24T03:29:01.981Z,1010.02
2018-12-24T03:30:01.960Z,1010.08
2018-12-24T03:31:01.953Z,1010.07
2018-12-24T03:32:01.938Z,1010.13
2018-12-24T03:33:01.927Z,1010.15
2018-12-24T03:34:01.935Z,1010.18
2018-12-24T03:35:01.949Z,1010.20
2018-12-24T03:36:01.896Z,1010.20
2018-12-24T03:37:01.883Z,1010.17
2018-12-24T03:38:01.874Z,1010.18
2018-12-24T03:39:01.880Z,1010.19
2018-12-24T03:40:01.852Z,1010.28
2018-12-24T03:41:01.845Z,1010.25
2018-12-24T03:42:01.834Z,1010.27
2018-12-24T03:43:01.819Z,1010.24
2018-12-24T03:44:01.819Z,1010.25
2018-12-24T03:45:01.798Z,1010.31
2018-12-24T03:46:01.788Z,1010.30
2018-12-24T03:47:01.775Z,1010.41
2018-12-24T03:48:01.770Z,1010.42
2018-12-24T03:49:01.768Z,1010.46
2018-12-24T03:50:01.746Z,1010.44
2018-12-24T03:51:01.838Z,1010.46
2018-12-24T03:52:01.721Z,1010.50
2018-12-24T03:53:01.712Z,1010.51
2018-12-24T03:54:01.714Z,1010.50
2018-12-24T03:55:01.690Z,1010.54
2018-12-24T03:56:01.682Z,1010.58
2018-12-24T03:57:01.679Z,1010.58
2018-12-24T03:58:01.661Z,1010.61
2018-12-24T03:59:01.659Z,1010.66
2018-12-24T04:00:01.649Z,1010.76
2018-12-24T04:01:01.641Z,1010.67
2018-12-24T04:02:01.623Z,1010.74
2018-12-24T04:03:01.607Z,1010.74
2018-12-24T04:04:01.622Z,1010.74
2018-12-24T04:05:01.590Z,1010.81
2018-12-24T04:06:01.576Z,1010.85
2018-12-24T04:07:01.562Z,1010.81
2018-12-24T04:08:01.555Z,1010.89
2018-12-24T04:09:01.556Z,1010.87
2018-12-24T04:10:01.531Z,1010.95
2018-12-24T04:11:01.519Z,1010.97
2018-12-24T04:12:01.509Z,1010.97
2018-12-24T04:13:01.497Z,1011.03
2018-12-24T04:14:01.498Z,1011.02
2018-12-24T04:15:01.476Z,1011.07
2018-12-24T04:16:01.466Z,1011.06
2018-12-24T04:17:01.464Z,1011.08
2018-12-24T04:18:01.444Z,1011.11
2018-12-24T04:19:01.443Z,1011.15
2018-12-24T04:20:01.427Z,1011.21
2018-12-24T04:21:01.411Z,1011.19
2018-12-24T04:22:01.402Z,1011.32
2018-12-24T04:23:01.390Z,1011.32
2018-12-24T04:24:01.393Z,1011.35
2018-12-24T04:25:01.368Z,1011.37
2018-12-24T04:26:01.359Z,1011.45
2018-12-24T04:27:01.346Z,1011.46
2018-12-24T04:28:01.338Z,1011.47
2018-12-24T04:29:01.339Z,1011.45
2018-12-24T04:30:01.518Z,1011.52
2018-12-24T04:31:01.306Z,1011.67
2018-12-24T04:32:01.295Z,1011.57
2018-12-24T04:33:01.282Z,1011.66
2018-12-24T04:34:01.274Z,1011.53
2018-12-24T04:35:01.277Z,1011.62
2018-12-24T04:36:01.259Z,1011.67
2018-12-24T04:37:01.242Z,1011.74
2018-12-24T04:38:01.230Z,1011.80
2018-12-24T04:39:01.221Z,1011.86
2018-12-24T04:40:01.218Z,1011.83
2018-12-24T04:41:01.195Z,1011.84
2018-12-24T04:42:01.187Z,1011.84
2018-12-24T04:43:01.175Z,1011.93
2018-12-24T04:44:01.169Z,1011.94
2018-12-24T04:45:01.167Z,1011.98
2018-12-24T04:46:01.143Z,1012.03
2018-12-24T04:47:01.135Z,1012.07
2018-12-24T04:48:01.123Z,1012.06
2018-12-24T04:49:01.113Z,1012.14
2018-12-24T04:50:01.120Z,1012.16
2018-12-24T04:51:01.089Z,1012.11
2018-12-24T04:52:01.080Z,1012.13
2018-12-24T04:53:01.068Z,1012.23
2018-12-24T04:54:01.060Z,1012.31
2018-12-24T04:55:01.058Z,1012.30
2018-12-24T04:56:01.037Z,1012.35
2018-12-24T04:57:01.027Z,1012.30
2018-12-24T04:58:01.015Z,1012.36
2018-12-24T04:59:01.004Z,1012.42
2018-12-24T05:00:01.008Z,1012.45
2018-12-24T05:01:00.981Z,1012.54
2018-12-24T05:02:00.975Z,1012.56
2018-12-24T05:03:00.963Z,1012.57
2018-12-24T05:04:00.952Z,1012.60
2018-12-24T05:05:00.953Z,1012.61
2018-12-24T05:06:00.930Z,1012.67
2018-12-24T05:07:00.918Z,1012.61
2018-12-24T05:08:00.908Z,1012.72
2018-12-24T05:09:00.898Z,1012.73
2018-12-24T05:10:00.899Z,1012.81
2018-12-24T05:11:00.876Z,1012.83
2018-12-24T05:12:00.866Z,1012.93
2018-12-24T05:13:00.856Z,1013.01
2018-12-24T05:14:00.847Z,1012.99
2018-12-24T05:15:00.851Z,1013.00
2018-12-24T05:16:00.824Z,1013.01
2018-12-24T05:17:00.814Z,1013.02
2018-12-24T05:18:00.804Z,1013.00
2018-12-24T05:19:00.793Z,1013.03
2018-12-24T05:20:00.797Z,1013.02
2018-12-24T05:21:00.771Z,1013.02
2018-12-24T05:22:00.762Z,1013.08
2018-12-24T05:23:00.753Z,1013.10
2018-12-24T05:24:00.739Z,1013.10
2018-12-24T05:25:00.739Z,1013.16
2018-12-24T05:26:00.718Z,1013.21
2018-12-24T05:27:00.708Z,1013.19
2018-12-24T05:28:00.696Z,1013.24
2018-12-24T05:29:00.687Z,1013.31
2018-12-24T05:30:00.696Z,1013.29
2018-12-24T05:31:00.663Z,1013.40
2018-12-24T05:32:00.653Z,1013.36
2018-12-24T05:33:00.643Z,1013.43
2018-12-24T05:34:00.644Z,1013.40
2018-12-24T05:35:00.635Z,1013.48
2018-12-24T05:36:00.610Z,1013.45
2018-12-24T05:37:00.601Z,1013.49
2018-12-24T05:38:00.589Z,1013.60
2018-12-24T05:39:00.577Z,1013.66
2018-12-24T05:40:00.581Z,1013.55
2018-12-24T05:41:00.562Z,1013.61
2018-12-24T05:42:00.547Z,1013.66
2018-12-24T05:43:00.538Z,1013.69
2018-12-24T05:44:00.527Z,1013.76
2018-12-24T05:45:00.526Z,1013.74
2018-12-24T05:46:00.508Z,1013.79
2018-12-24T05:47:00.492Z,1013.77
2018-12-24T05:48:00.489Z,1013.85
2018-12-24T05:49:00.472Z,1013.88
2018-12-24T05:50:00.472Z,1013.87
2018-12-24T05:51:00.451Z,1013.89
2018-12-24T05:52:00.448Z,1013.88
2018-12-24T05:53:00.429Z,1013.96
2018-12-24T05:54:00.421Z,1013.95
2018-12-24T05:55:00.425Z,1014.01
2018-12-24T05:56:00.398Z,1014.02
2018-12-24T05:57:00.386Z,1014.04
2018-12-24T05:58:00.377Z,1014.18
2018-12-24T05:59:00.368Z,1014.13
2018-12-24T06:00:00.368Z,1014.19
2018-12-24T06:01:00.344Z,1014.17
2018-12-24T06:02:00.334Z,1014.22
2018-12-24T06:03:00.324Z,1014.27
2018-12-24T06:04:00.316Z,1014.29
2018-12-24T06:05:00.339Z,1014.31
2018-12-24T06:06:00.294Z,1014.37
2018-12-24T06:07:00.281Z,1014.35
2018-12-24T06:08:00.272Z,1014.40
2018-12-24T06:09:00.262Z,1014.42
2018-12-24T06:10:00.299Z,1014.41
2018-12-24T06:11:00.251Z,1014.49
2018-12-24T06:12:00.226Z,1014.56
2018-12-24T06:13:00.216Z,1014.54
2018-12-24T06:14:00.207Z,1014.63
2018-12-24T06:15:00.258Z,1014.66
2018-12-24T06:16:00.198Z,1014.70
2018-12-24T06:17:00.178Z,1014.77
2018-12-24T06:18:00.180Z,1014.75
2018-12-24T06:19:00.155Z,1014.73
2018-12-24T06:20:00.257Z,1014.76
2018-12-24T06:21:00.145Z,1014.85
2018-12-24T06:22:00.138Z,1014.92
2018-12-24T06:23:00.111Z,1014.97
2018-12-24T06:24:00.099Z,1014.97
2018-12-24T06:25:00.143Z,1014.96
2018-12-24T06:26:00.099Z,1014.96
2018-12-24T06:27:00.077Z,1015.07
2018-12-24T06:28:00.059Z,1014.96
2018-12-24T06:29:00.047Z,1015.01
2018-12-24T06:30:00.036Z,1015.06
2018-12-24T06:31:00.038Z,1015.03
2018-12-24T06:32:00.013Z,1015.12
2018-12-24T06:33:00.006Z,1015.18
2018-12-24T06:34:00.000Z,1015.19
2018-12-24T06:34:59.982Z,1015.26
2018-12-24T06:35:59.983Z,1015.20
2018-12-24T06:36:59.961Z,1015.24
2018-12-24T06:37:59.952Z,1015.28
2018-12-24T06:38:59.941Z,1015.28
2018-12-24T06:39:59.931Z,1015.27
2018-12-24T06:41:00.048Z,1015.36
2018-12-24T06:41:59.907Z,1015.44
2018-12-24T06:42:59.897Z,1015.43
2018-12-24T06:44:06.747Z,1015.47
2018-12-24T06:45:00.875Z,1015.44
2018-12-24T06:45:59.882Z,1015.58
2018-12-24T06:46:59.854Z,1015.57
2018-12-24T06:47:59.844Z,1015.51
2018-12-24T06:48:59.835Z,1015.57
2018-12-24T06:49:59.822Z,1015.56
2018-12-24T06:50:59.824Z,1015.54
2018-12-24T06:51:59.801Z,1015.65
2018-12-24T06:52:59.790Z,1015.71
2018-12-24T06:53:59.781Z,1015.79
2018-12-24T06:54:59.771Z,1015.82
2018-12-24T06:55:59.778Z,1015.88
2018-12-24T06:56:59.747Z,1015.87
2018-12-24T06:57:59.738Z,1015.91
2018-12-24T06:58:59.725Z,1015.97
2018-12-24T06:59:59.715Z,1015.98
2018-12-24T07:00:59.717Z,1016.06
2018-12-24T07:01:59.696Z,1016.05
2018-12-24T07:02:59.687Z,1016.06
2018-12-24T07:03:59.672Z,1016.09
2018-12-24T07:04:59.663Z,1016.16
2018-12-24T07:05:59.666Z,1016.15
2018-12-24T07:06:59.642Z,1016.14
2018-12-24T07:07:59.634Z,1016.16
2018-12-24T07:08:59.628Z,1016.20
2018-12-24T07:09:59.608Z,1016.17
2018-12-24T07:10:59.611Z,1016.23
2018-12-24T07:11:59.590Z,1016.32
2018-12-24T07:12:59.579Z,1016.40
2018-12-24T07:13:59.568Z,1016.37
2018-12-24T07:14:59.559Z,1016.51
2018-12-24T07:15:59.557Z,1016.46
2018-12-24T07:16:59.535Z,1016.50
2018-12-24T07:17:59.523Z,1016.43
2018-12-24T07:18:59.512Z,1016.55
2018-12-24T07:19:59.502Z,1016.59
2018-12-24T07:20:59.503Z,1016.58
2018-12-24T07:21:59.484Z,1016.58
2018-12-24T07:22:59.470Z,1016.68
2018-12-24T07:23:59.460Z,1016.64
2018-12-24T07:24:59.454Z,1016.68
2018-12-24T07:25:59.452Z,1016.73
2018-12-24T07:26:59.428Z,1016.79
2018-12-24T07:27:59.417Z,1016.76
2018-12-24T07:28:59.424Z,1016.80
2018-12-24T07:29:59.397Z,1016.80
2018-12-24T07:30:59.396Z,1016.92
2018-12-24T07:31:59.376Z,1016.93
2018-12-24T07:32:59.364Z,1016.87
2018-12-24T07:33:59.354Z,1016.91
2018-12-24T07:34:59.361Z,1016.98
2018-12-24T07:35:59.378Z,1016.97
2018-12-24T07:36:59.321Z,1016.99
2018-12-24T07:37:59.310Z,1016.96
2018-12-24T07:38:59.303Z,1017.03
2018-12-24T07:39:59.289Z,1017.04
2018-12-24T07:40:59.278Z,1017.12
2018-12-24T07:41:59.279Z,1017.16
2018-12-24T07:42:59.259Z,1017.16
2018-12-24T07:43:59.246Z,1017.22
2018-12-24T07:44:59.236Z,1017.28
2018-12-24T07:45:59.226Z,1017.28
2018-12-24T07:46:59.227Z,1017.26
2018-12-24T07:47:59.204Z,1017.30
2018-12-24T07:48:59.196Z,1017.36
2018-12-24T07:49:59.182Z,1017.41
2018-12-24T07:50:59.173Z,1017.47
2018-12-24T07:51:59.173Z,1017.45
2018-12-24T07:52:59.154Z,1017.48
2018-12-24T07:53:59.143Z,1017.56
2018-12-24T07:54:59.129Z,1017.58
2018-12-24T07:55:59.121Z,1017.63
2018-12-24T07:56:59.118Z,1017.60
2018-12-24T07:57:59.099Z,1017.62
2018-12-24T07:58:59.089Z,1017.70
2018-12-24T07:59:59.075Z,1017.75
2018-12-24T08:00:59.143Z,1017.74
2018-12-24T08:01:59.069Z,1017.83
2018-12-24T08:02:59.043Z,1017.83
2018-12-24T08:03:59.034Z,1017.90
2018-12-24T08:04:59.025Z,1018.01
2018-12-24T08:05:59.011Z,1018.01
2018-12-24T08:06:59.017Z,1018.01
2018-12-24T08:07:58.990Z,1018.09
2018-12-24T08:08:58.979Z,1018.05
2018-12-24T08:09:58.968Z,1018.14
2018-12-24T08:10:58.959Z,1018.17
2018-12-24T08:11:58.963Z,1018.17
2018-12-24T08:12:58.937Z,1018.12
2018-12-24T08:13:58.926Z,1018.24
2018-12-24T08:14:58.916Z,1018.23
2018-12-24T08:15:58.907Z,1018.37
2018-12-24T08:16:58.905Z,1018.34
2018-12-24T08:17:58.883Z,1018.36
2018-12-24T08:18:58.873Z,1018.49
2018-12-24T08:19:58.864Z,1018.55
2018-12-24T08:20:58.855Z,1018.47
2018-12-24T08:21:58.882Z,1018.51
2018-12-24T08:22:58.832Z,1018.56
2018-12-24T08:23:58.822Z,1018.55
2018-12-24T08:24:58.812Z,1018.56
2018-12-24T08:25:58.803Z,1018.56
2018-12-24T08:26:58.800Z,1018.63
2018-12-24T08:27:58.789Z,1018.59
2018-12-24T08:28:58.769Z,1018.63
2018-12-24T08:29:58.756Z,1018.64
2018-12-24T08:30:58.751Z,1018.68
2018-12-24T08:31:58.734Z,1018.71
2018-12-24T08:32:58.739Z,1018.79
2018-12-24T08:33:58.714Z,1018.71
2018-12-24T08:34:58.709Z,1018.80
2018-12-24T08:35:58.693Z,1018.79
2018-12-24T08:36:58.681Z,1018.82
2018-12-24T08:37:58.683Z,1018.87
2018-12-24T08:38:58.666Z,1018.90
2018-12-24T08:39:58.655Z,1018.93
2018-12-24T08:40:58.640Z,1018.81
2018-12-24T08:41:58.637Z,1018.98
2018-12-24T08:42:58.629Z,1018.90
2018-12-24T08:43:58.612Z,1018.95
2018-12-24T08:44:58.598Z,1018.95
2018-12-24T08:45:58.587Z,1018.97
2018-12-24T08:46:58.586Z,1018.97
2018-12-24T08:47:58.577Z,1019.01
2018-12-24T08:48:58.555Z,1018.96
2018-12-24T08:49:58.543Z,1018.97
2018-12-24T08:50:58.533Z,1019.05
2018-12-24T08:51:58.528Z,1019.03
2018-12-24T08:52:58.524Z,1019.06
2018-12-24T08:53:58.503Z,1019.06
2018-12-24T08:54:58.489Z,1019.13
2018-12-24T08:55:58.479Z,1019.11
2018-12-24T08:56:58.470Z,1019.17
2018-12-24T08:57:58.470Z,1019.19
2018-12-24T08:58:58.448Z,1019.17
2018-12-24T08:59:58.439Z,1019.21
2018-12-24T09:00:58.427Z,1019.21
2018-12-24T09:01:58.425Z,1019.23
2018-12-24T09:02:58.415Z,1019.18
2018-12-24T09:03:58.399Z,1019.18
2018-12-24T09:04:58.383Z,1019.19
2018-12-24T09:05:58.373Z,1019.26
2018-12-24T09:06:58.363Z,1019.21
2018-12-24T09:07:58.363Z,1019.33
2018-12-24T09:08:58.341Z,1019.28
2018-12-24T09:09:58.331Z,1019.34
2018-12-24T09:10:58.322Z,1019.32
2018-12-24T09:11:58.310Z,1019.36
2018-12-24T09:12:58.315Z,1019.37
2018-12-24T09:13:58.289Z,1019.41
2018-12-24T09:14:58.280Z,1019.34
2018-12-24T09:15:58.268Z,1019.45
2018-12-24T09:16:58.256Z,1019.41
2018-12-24T09:17:58.257Z,1019.40
2018-12-24T09:18:58.236Z,1019.43
2018-12-24T09:19:58.226Z,1019.45
2018-12-24T09:20:58.215Z,1019.46
2018-12-24T09:21:58.208Z,1019.48
2018-12-24T09:22:58.204Z,1019.59
2018-12-24T09:23:58.183Z,1019.60
2018-12-24T09:24:58.173Z,1019.60
2018-12-24T09:25:58.164Z,1019.59
2018-12-24T09:26:58.154Z,1019.65
2018-12-24T09:27:58.150Z,1019.70
2018-12-24T09:28:58.129Z,1019.71
2018-12-24T09:29:58.121Z,1019.76
2018-12-24T09:30:58.110Z,1019.81
2018-12-24T09:31:58.097Z,1019.74
2018-12-24T09:32:58.102Z,1019.77
2018-12-24T09:33:58.079Z,1019.77
2018-12-24T09:34:58.066Z,1019.83
2018-12-24T09:35:58.054Z,1019.86
2018-12-24T09:36:58.099Z,1019.94
2018-12-24T09:37:58.046Z,1019.85
2018-12-24T09:38:58.023Z,1019.87
2018-12-24T09:39:58.015Z,1019.80
2018-12-24T09:40:58.002Z,1019.90
2018-12-24T09:41:57.991Z,1019.91
2018-12-24T09:42:57.991Z,1019.99
2018-12-24T09:43:57.975Z,1019.93
2018-12-24T09:44:59.025Z,1019.86
2018-12-24T09:45:57.948Z,1019.96
2018-12-24T09:46:57.938Z,1019.94
2018-12-24T09:47:57.944Z,1019.97
2018-12-24T09:48:57.924Z,1019.99
2018-12-24T09:49:57.909Z,1020.05
2018-12-24T09:50:57.897Z,1019.94
2018-12-24T09:51:57.886Z,1020.07
2018-12-24T09:52:57.885Z,1020.01
2018-12-24T09:53:57.865Z,1020.09
2018-12-24T09:54:57.854Z,1020.08
2018-12-24T09:55:57.843Z,1020.08
2018-12-24T09:56:57.838Z,1020.04
2018-12-24T09:57:57.831Z,1020.08
2018-12-24T09:58:57.811Z,1020.07
2018-12-24T09:59:57.801Z,1020.13
2018-12-24T10:00:57.790Z,1020.07
2018-12-24T10:01:57.779Z,1020.10
2018-12-24T10:02:57.783Z,1020.07
2018-12-24T10:04:02.852Z,1020.16
2018-12-24T10:04:58.745Z,1020.16
2018-12-24T10:05:57.780Z,1020.19
2018-12-24T10:06:57.728Z,1020.21
2018-12-24T10:07:57.730Z,1020.08
2018-12-24T10:08:57.704Z,1020.13
2018-12-24T10:09:57.697Z,1020.22
2018-12-24T10:10:57.688Z,1020.16
2018-12-24T10:11:57.673Z,1020.19
2018-12-24T10:12:57.694Z,1020.12
2018-12-24T10:13:57.653Z,1020.14
2018-12-24T10:14:57.647Z,1020.14
2018-12-24T10:15:57.635Z,1020.17
2018-12-24T10:16:57.630Z,1020.19
2018-12-24T10:17:57.608Z,1020.25
2018-12-24T10:18:57.609Z,1020.25
2018-12-24T10:19:57.591Z,1020.27
2018-12-24T10:20:57.581Z,1020.31
2018-12-24T10:21:57.565Z,1020.26
2018-12-24T10:22:57.569Z,1020.31
2018-12-24T10:23:57.558Z,1020.30
2018-12-24T10:24:57.535Z,1020.29
2018-12-24T10:25:57.524Z,1020.28
2018-12-24T10:26:57.513Z,1020.33
2018-12-24T10:27:57.513Z,1020.37
2018-12-24T10:28:57.503Z,1020.32
2018-12-24T10:29:57.480Z,1020.33
2018-12-24T10:30:57.471Z,1020.34
2018-12-24T10:31:57.458Z,1020.33
2018-12-24T10:32:57.450Z,1020.38
2018-12-24T10:33:57.456Z,1020.42
2018-12-24T10:34:57.429Z,1020.42
2018-12-24T10:35:57.416Z,1020.38
2018-12-24T10:36:57.404Z,1020.34
2018-12-24T10:37:57.394Z,1020.34
2018-12-24T10:38:57.396Z,1020.31
2018-12-24T10:39:57.374Z,1020.37
2018-12-24T10:40:57.365Z,1020.39
2018-12-24T10:41:57.352Z,1020.39
2018-12-24T10:42:57.347Z,1020.43
2018-12-24T10:43:57.342Z,1020.42
2018-12-24T10:44:57.321Z,1020.44
2018-12-24T10:45:57.313Z,1020.55
2018-12-24T10:46:58.480Z,1020.52
2018-12-24T10:47:57.288Z,1020.52
2018-12-24T10:48:57.288Z,1020.53
2018-12-24T10:49:57.364Z,1020.55
2018-12-24T10:50:57.260Z,1020.54
2018-12-24T10:51:57.250Z,1020.54
2018-12-24T10:52:57.298Z,1020.47
2018-12-24T10:53:57.236Z,1020.56
2018-12-24T10:54:57.218Z,1020.57
2018-12-24T10:55:57.206Z,1020.57
2018-12-24T10:56:57.194Z,1020.59
2018-12-24T10:57:57.182Z,1020.61
2018-12-24T10:58:57.184Z,1020.61
2018-12-24T10:59:57.163Z,1020.67
2018-12-24T11:00:57.159Z,1020.63
2018-12-24T11:01:57.141Z,1020.70
2018-12-24T11:02:57.128Z,1020.71
2018-12-24T11:03:57.132Z,1020.67
2018-12-24T11:04:57.108Z,1020.71
2018-12-24T11:05:57.103Z,1020.75
2018-12-24T11:06:57.094Z,1020.75
2018-12-24T11:07:57.075Z,1020.77
2018-12-24T11:08:57.081Z,1020.77
2018-12-24T11:09:57.056Z,1020.82
2018-12-24T11:10:57.044Z,1020.86
2018-12-24T11:11:57.038Z,1020.93
2018-12-24T11:12:57.023Z,1020.92
2018-12-24T11:13:57.027Z,1020.91
2018-12-24T11:14:57.002Z,1020.95
2018-12-24T11:15:56.991Z,1020.91
2018-12-24T11:16:56.981Z,1020.93
2018-12-24T11:17:56.969Z,1021.01
2018-12-24T11:18:56.970Z,1021.06
2018-12-24T11:19:56.948Z,1021.05
2018-12-24T11:20:56.937Z,1020.98
2018-12-24T11:21:56.928Z,1021.04
2018-12-24T11:22:56.950Z,1020.92
2018-12-24T11:23:56.927Z,1021.05
2018-12-24T11:24:56.897Z,1021.00
2018-12-24T11:25:56.886Z,1020.87
2018-12-24T11:26:56.891Z,1020.85
2018-12-24T11:27:56.864Z,1020.86
2018-12-24T11:28:56.867Z,1020.88
2018-12-24T11:29:56.842Z,1020.88
2018-12-24T11:30:56.843Z,1020.82
2018-12-24T11:31:56.821Z,1020.80
2018-12-24T11:32:56.811Z,1020.83
2018-12-24T11:33:57.687Z,1020.85
2018-12-24T11:34:56.790Z,1020.77
2018-12-24T11:35:56.778Z,1020.76
2018-12-24T11:36:56.767Z,1020.80
2018-12-24T11:37:56.756Z,1020.78
2018-12-24T11:38:56.801Z,1020.72
2018-12-24T11:39:56.735Z,1020.71
2018-12-24T11:40:56.725Z,1020.70
2018-12-24T11:41:56.716Z,1020.82
2018-12-24T11:42:56.744Z,1020.74
2018-12-24T11:43:56.698Z,1020.79
2018-12-24T11:44:56.695Z,1020.76
2018-12-24T11:45:56.671Z,1020.79
2018-12-24T11:46:56.661Z,1020.84
2018-12-24T11:47:56.651Z,1020.86
2018-12-24T11:48:56.640Z,1020.88
2018-12-24T11:49:56.644Z,1020.92
2018-12-24T11:50:56.618Z,1020.92
2018-12-24T11:51:56.608Z,1020.95
2018-12-24T11:52:56.599Z,1020.86
2018-12-24T11:53:56.587Z,1020.94
2018-12-24T11:54:56.586Z,1020.94
2018-12-24T11:55:56.574Z,1021.00
2018-12-24T11:56:56.555Z,1021.04
2018-12-24T11:57:56.547Z,1021.03
2018-12-24T11:58:56.534Z,1020.98
2018-12-24T11:59:56.536Z,1020.99
2018-12-24T12:00:56.623Z,1021.06
2018-12-24T12:01:56.501Z,1021.04
2018-12-24T12:02:56.492Z,1021.02
2018-12-24T12:03:56.480Z,1021.06
2018-12-24T12:04:56.483Z,1021.08